Terminal Aerodrome Forecast
Issued by NWS Omaha/Valley, NE

Home | Current Version | Previous Version | Graphics & Text | Print | Product List | Glossary On
Versions: 1 2 3 4 5 6 7 8 9 10 11 12 13 14 15 16 17 18 19 20 21 22 23 24
000
FTUS43 KOAX 230724 AAB
TAFOFK
TAF AMD
KOFK 230724Z 2307/2406 VRB04KT 2SM BR SCT003 BKN009
      TEMPO 2307/2310 1/2SM FG BKN003
     FM231000 27004KT 2SM BR BKN003
      TEMPO 2310/2314 1/4SM FG VV001
     FM231600 22005KT P6SM SCT025
     FM231900 21009KT P6SM SCT030 SCT100=

USA.gov is the U.S. government's official web portal to all federal, state and local government web resources and services.